Time;durP1;ratioP1;P1;durP2;ratioP2;P2;SDS_P1;SDS_P2;PMS_P1;PMS_P2;Temp;Humidity;BMP_temperature;BMP_pressure;BME280_temperature;BME280_humidity;BME280_pressure;Samples;Min_cycle;Max_cycle;Signal;HPM_P1;HPM_P2
2022/06/06 00:00:48;;;;;;;12.27;7.93;;;12.60;99.90;;;;;;5082060;28;20212;-55
2022/06/06 00:03:15;;;;;;;11.27;9.10;;;12.60;99.90;;;;;;5072203;28;20225;-54
2022/06/06 00:05:43;;;;;;;12.17;8.40;;;12.60;99.90;;;;;;5076714;28;20266;-57
2022/06/06 00:08:11;;;;;;;14.80;10.15;;;12.60;99.90;;;;;;5091377;28;20175;-56
2022/06/06 00:10:39;;;;;;;15.55;9.88;;;12.60;99.90;;;;;;5091284;28;20538;-56
2022/06/06 00:13:06;;;;;;;12.43;9.38;;;12.50;99.90;;;;;;5077619;28;20180;-57
2022/06/06 00:15:32;;;;;;;16.75;9.40;;;12.50;99.90;;;;;;5071241;28;20176;-56
2022/06/06 00:17:57;;;;;;;13.90;9.73;;;;;;;;;;5074720;28;20658;-57
2022/06/06 00:20:24;;;;;;;13.82;9.55;;;12.50;99.90;;;;;;5072081;28;20216;-56
2022/06/06 00:22:49;;;;;;;13.77;10.27;;;12.50;99.90;;;;;;5076080;28;20222;-56
2022/06/06 00:25:15;;;;;;;16.60;10.33;;;12.50;99.90;;;;;;5082197;28;20644;-57
2022/06/06 00:27:41;;;;;;;16.37;9.20;;;12.40;99.90;;;;;;5074692;28;20167;-56
2022/06/06 00:30:08;;;;;;;12.93;8.80;;;12.60;99.90;;;;;;5089145;28;20595;-58
2022/06/06 00:35:20;;;;;;;13.40;8.87;;;12.70;99.90;;;;;;5064022;28;20198;-55
2022/06/06 00:37:47;;;;;;;11.27;7.73;;;12.60;99.90;;;;;;5070825;28;20173;-56
2022/06/06 00:40:14;;;;;;;12.13;8.07;;;12.60;99.90;;;;;;5070750;28;20239;-56
2022/06/06 00:42:43;;;;;;;16.33;8.80;;;12.40;99.90;;;;;;5070560;28;20176;-56
2022/06/06 00:45:22;;;;;;;11.17;8.37;;;12.40;99.90;;;;;;5070795;28;20176;-56
2022/06/06 00:48:00;;;;;;;13.17;9.07;;;12.40;99.90;;;;;;5070603;28;20658;-56
2022/06/06 00:50:44;;;;;;;14.60;9.57;;;12.40;99.90;;;;;;5070766;28;20274;-56
2022/06/06 00:53:13;;;;;;;17.83;9.83;;;12.40;99.90;;;;;;5070660;28;20172;-56
2022/06/06 00:55:45;;;;;;;16.30;10.57;;;12.40;99.90;;;;;;5084040;28;20179;-56
2022/06/06 00:58:16;;;;;;;13.80;9.20;;;12.40;99.90;;;;;;5090745;28;20714;-56
2022/06/06 01:00:43;;;;;;;13.00;9.77;;;12.40;99.90;;;;;;5090621;28;20217;-56
2022/06/06 01:03:12;;;;;;;16.73;9.67;;;12.50;99.90;;;;;;5091832;28;20168;-57
2022/06/06 01:05:40;;;;;;;13.33;9.20;;;12.70;99.90;;;;;;5086674;28;20189;-56
2022/06/06 01:08:07;;;;;;;12.17;8.40;;;12.50;99.90;;;;;;5093906;28;20175;-56
2022/06/06 01:10:33;;;;;;;11.97;8.33;;;12.50;99.90;;;;;;5094829;28;20183;-56
2022/06/06 01:12:59;;;;;;;14.00;8.67;;;12.50;99.90;;;;;;5094629;28;20196;-56
2022/06/06 01:15:30;;;;;;;11.40;8.47;;;12.50;99.90;;;;;;5094641;28;20214;-56
2022/06/06 01:18:20;;;;;;;11.07;8.10;;;12.40;99.90;;;;;;5078861;28;20183;-57
2022/06/06 01:20:53;;;;;;;14.00;8.53;;;12.50;99.90;;;;;;5074509;28;20686;-57
2022/06/06 01:23:46;;;;;;;13.77;9.30;;;12.40;99.90;;;;;;5074207;28;20512;-57
2022/06/06 01:26:30;;;;;;;12.57;8.47;;;12.50;99.90;;;;;;5073804;28;20208;-58
2022/06/06 01:29:07;;;;;;;14.93;8.00;;;12.50;99.90;;;;;;5075511;28;20234;-57
2022/06/06 01:31:39;;;;;;;11.07;8.40;;;11.00;99.90;;;;;;5089196;28;20227;-57
2022/06/06 01:34:08;;;;;;;10.70;8.20;;;12.50;99.90;;;;;;5094249;28;20180;-57
2022/06/06 01:36:35;;;;;;;9.60;7.30;;;12.50;99.90;;;;;;5084460;28;20287;-57
2022/06/06 01:39:08;;;;;;;10.03;7.53;;;12.30;99.90;;;;;;5074007;28;20251;-57
2022/06/06 01:42:08;;;;;;;11.23;8.20;;;12.40;99.90;;;;;;5073835;28;20609;-57
2022/06/06 01:45:14;;;;;;;10.50;8.10;;;12.40;99.90;;;;;;5073727;28;20181;-56
2022/06/06 01:47:46;;;;;;;11.37;7.47;;;12.20;99.90;;;;;;5052492;28;20196;-56
2022/06/06 01:50:12;;;;;;;8.97;6.67;;;12.40;99.90;;;;;;5084299;28;20638;-57
2022/06/06 01:52:57;;;;;;;10.97;7.53;;;12.40;99.90;;;;;;5093191;28;20191;-57
2022/06/06 01:55:25;;;;;;;10.53;7.17;;;12.30;99.90;;;;;;5093086;28;20718;-57
2022/06/06 01:57:55;;;;;;;9.57;7.00;;;12.30;99.90;;;;;;5093518;28;20167;-57
2022/06/06 02:00:21;;;;;;;11.07;6.60;;;12.30;99.90;;;;;;5093660;28;20212;-56
2022/06/06 02:02:47;;;;;;;11.20;6.90;;;12.60;99.90;;;;;;5092933;28;20168;-56
2022/06/06 02:05:14;;;;;;;10.37;6.97;;;12.40;99.90;;;;;;5087756;28;20582;-56
2022/06/06 02:07:42;;;;;;;11.13;7.57;;;12.40;99.90;;;;;;5074558;28;20169;-59
2022/06/06 02:10:09;;;;;;;10.80;6.95;;;12.40;99.90;;;;;;5082393;28;20183;-55
2022/06/06 02:12:36;;;;;;;8.93;6.47;;;12.40;99.90;;;;;;5073392;28;20177;-56
2022/06/06 02:15:03;;;;;;;10.13;6.43;;;12.40;99.90;;;;;;5072640;28;20195;-56
2022/06/06 02:17:29;;;;;;;9.60;5.87;;;12.40;99.90;;;;;;5073284;28;20184;-56
2022/06/06 02:19:54;;;;;;;7.17;5.57;;;12.40;99.90;;;;;;5085321;28;20215;-56
2022/06/06 02:22:20;;;;;;;6.37;4.77;;;12.50;99.90;;;;;;5073259;28;20177;-56
2022/06/06 02:24:46;;;;;;;10.88;5.00;;;12.40;99.90;;;;;;5073023;28;20260;-56
2022/06/06 02:27:12;;;;;;;5.00;4.00;;;12.40;99.90;;;;;;5074151;28;20699;-56
2022/06/06 02:29:38;;;;;;;4.83;3.93;;;12.40;99.90;;;;;;5073002;28;20654;-57
2022/06/06 02:32:05;;;;;;;5.00;3.95;;;12.40;99.90;;;;;;5089881;28;20247;-56
2022/06/06 02:34:31;;;;;;;4.28;3.53;;;12.40;99.90;;;;;;5093263;28;20180;-56
2022/06/06 02:36:56;;;;;;;5.13;4.03;;;12.30;99.90;;;;;;5092830;28;20175;-55
2022/06/06 02:39:22;;;;;;;5.90;3.87;;;12.30;99.90;;;;;;5082781;28;20202;-56
2022/06/06 02:41:48;;;;;;;4.30;3.23;;;12.30;99.90;;;;;;5072895;28;20248;-56
2022/06/06 02:44:13;;;;;;;4.23;3.17;;;12.30;99.90;;;;;;5072749;28;20284;-56
2022/06/06 02:46:39;;;;;;;4.30;3.35;;;12.30;99.90;;;;;;5072789;28;20181;-56
2022/06/06 02:49:04;;;;;;;3.97;3.33;;;12.10;99.90;;;;;;5073398;28;20566;-56
2022/06/06 02:51:30;;;;;;;4.33;3.50;;;12.30;99.90;;;;;;5092524;28;20662;-56
2022/06/06 02:53:56;;;;;;;4.93;3.37;;;12.30;99.90;;;;;;5091137;28;20218;-56
2022/06/06 02:56:21;;;;;;;3.90;3.50;;;12.30;99.90;;;;;;5092390;28;20183;-56
2022/06/06 02:58:47;;;;;;;4.33;3.30;;;12.30;99.90;;;;;;5092998;28;20190;-61
2022/06/06 03:01:13;;;;;;;5.23;3.50;;;12.30;99.90;;;;;;5092274;28;20302;-61
2022/06/06 03:03:40;;;;;;;6.03;2.97;;;12.30;99.90;;;;;;5090719;28;20182;-55
2022/06/06 03:06:06;;;;;;;3.43;2.90;;;12.30;99.90;;;;;;5090943;28;20634;-55
2022/06/06 03:08:51;;;;;;;4.60;2.93;;;12.20;99.90;;;;;;5090884;28;20180;-56
2022/06/06 03:11:50;;;;;;;4.03;3.30;;;12.20;99.90;;;;;;5065146;28;20255;-56
2022/06/06 03:14:25;;;;;;;4.07;2.93;;;12.20;99.90;;;;;;5072153;28;20169;-54
2022/06/06 03:22:58;;;;;;;5.93;3.10;;;12.20;99.90;;;;;;5074916;28;20203;-54
2022/06/06 03:25:27;;;;;;;3.90;3.10;;;12.20;99.90;;;;;;5078982;28;20177;-54
2022/06/06 03:28:15;;;;;;;4.27;3.30;;;12.20;99.90;;;;;;5072968;28;20373;-53
2022/06/06 03:31:02;;;;;;;3.93;3.23;;;12.20;99.90;;;;;;5078600;28;20775;-55
2022/06/06 03:33:56;;;;;;;3.80;3.10;;;12.30;99.90;;;;;;5091874;28;20186;-55
2022/06/06 03:36:27;;;;;;;3.90;2.70;;;12.30;99.90;;;;;;5091974;28;20172;-54
2022/06/06 03:39:02;;;;;;;8.20;2.83;;;12.40;99.90;;;;;;5091624;28;20218;-54
2022/06/06 03:42:10;;;;;;;4.40;3.10;;;12.30;99.90;;;;;;5091557;28;20654;-54
2022/06/06 03:44:54;;;;;;;3.80;2.87;;;12.30;99.90;;;;;;5061876;28;20195;-54
2022/06/06 03:47:39;;;;;;;4.10;2.77;;;12.30;99.90;;;;;;5091879;28;20274;-54
2022/06/06 03:50:38;;;;;;;2.78;2.25;;;12.30;99.90;;;;;;5082547;28;20176;-54
2022/06/06 03:53:22;;;;;;;3.23;2.63;;;12.30;99.90;;;;;;5071467;28;20179;-54
2022/06/06 03:56:03;;;;;;;4.03;2.60;;;12.40;99.90;;;;;;5071454;28;20573;-54
2022/06/06 03:58:32;;;;;;;4.13;2.30;;;12.30;99.90;;;;;;5071047;28;20658;-54
2022/06/06 04:01:04;;;;;;;3.27;2.40;;;12.30;99.90;;;;;;5070927;28;20210;-55
2022/06/06 04:03:32;;;;;;;3.20;2.60;;;12.20;99.90;;;;;;5072231;28;20251;-55
2022/06/06 04:06:01;;;;;;;6.57;3.07;;;12.20;99.90;;;;;;5071070;28;20180;-54
2022/06/06 04:08:27;;;;;;;3.20;2.50;;;12.30;99.90;;;;;;5071162;28;20179;-54
2022/06/06 04:11:23;;;;;;;4.70;2.63;;;12.30;99.90;;;;;;5071115;28;20177;-54
2022/06/06 04:14:19;;;;;;;4.80;2.70;;;12.30;99.90;;;;;;5071126;28;20172;-54
2022/06/06 04:17:00;;;;;;;5.03;2.93;;;12.30;99.90;;;;;;5071136;28;20175;-54
2022/06/06 04:19:37;;;;;;;3.80;2.40;;;12.30;99.90;;;;;;5076384;28;20679;-54
2022/06/06 04:22:37;;;;;;;3.70;2.47;;;12.30;99.90;;;;;;5091203;28;20259;-55
2022/06/06 04:25:14;;;;;;;4.07;2.67;;;12.40;99.90;;;;;;5085631;28;20169;-55
2022/06/06 04:28:17;;;;;;;4.87;2.30;;;12.40;99.90;;;;;;5072579;28;20651;-56
2022/06/06 04:30:59;;;;;;;4.67;2.33;;;12.40;99.90;;;;;;5064772;28;20251;-55
2022/06/06 04:33:39;;;;;;;3.07;2.33;;;12.40;99.90;;;;;;5077354;28;20172;-55
2022/06/06 04:36:09;;;;;;;2.90;2.23;;;12.40;99.90;;;;;;5090588;28;20210;-56
2022/06/06 04:38:49;;;;;;;5.00;2.30;;;12.30;99.90;;;;;;5090925;28;20180;-55
2022/06/06 04:41:52;;;;;;;3.80;2.67;;;12.40;99.90;;;;;;5090469;28;20294;-55
2022/06/06 04:44:37;;;;;;;4.50;2.40;;;12.40;99.90;;;;;;5090449;28;20176;-55
2022/06/06 04:47:12;;;;;;;3.67;2.60;;;12.50;99.90;;;;;;5090827;28;20167;-55
2022/06/06 04:49:38;;;;;;;3.30;2.77;;;12.50;99.90;;;;;;5063243;28;20693;-55
2022/06/06 04:52:05;;;;;;;4.20;2.83;;;12.50;99.90;;;;;;5070658;28;20180;-55
2022/06/06 04:54:32;;;;;;;2.93;2.40;;;12.50;99.90;;;;;;5073132;28;20279;-54
2022/06/06 04:57:03;;;;;;;3.33;2.40;;;12.40;99.90;;;;;;5080545;28;20202;-55
2022/06/06 04:59:30;;;;;;;3.00;2.60;;;12.50;99.90;;;;;;5070178;28;20212;-55
2022/06/06 05:01:58;;;;;;;4.90;2.37;;;12.50;99.90;;;;;;5071573;28;20211;-55
2022/06/06 05:04:24;;;;;;;3.37;2.60;;;12.40;99.90;;;;;;5071590;28;20267;-55
2022/06/06 05:07:26;;;;;;;4.15;2.58;;;12.50;99.90;;;;;;5070560;28;20268;-55
2022/06/06 05:10:01;;;;;;;4.73;2.63;;;12.50;99.90;;;;;;5070401;28;20725;-54
2022/06/06 05:12:51;;;;;;;3.10;2.57;;;12.50;99.90;;;;;;5070446;28;20246;-59
2022/06/06 05:15:38;;;;;;;4.10;2.50;;;12.50;99.90;;;;;;5070510;28;20179;-56
2022/06/06 05:18:32;;;;;;;3.10;2.50;;;12.50;99.90;;;;;;5073941;28;20168;-56
2022/06/06 05:21:21;;;;;;;3.42;2.60;;;12.60;99.90;;;;;;5089984;28;20216;-56
2022/06/06 05:24:18;;;;;;;4.50;2.93;;;12.50;99.90;;;;;;5090474;28;20179;-55
2022/06/06 05:27:07;;;;;;;5.53;2.40;;;12.60;99.90;;;;;;5057733;28;20215;-56
2022/06/06 05:30:02;;;;;;;3.25;2.30;;;12.60;99.90;;;;;;5090040;28;20674;-56
2022/06/06 05:32:51;;;;;;;3.10;2.67;;;12.50;99.90;;;;;;5073622;28;20312;-56
2022/06/06 05:35:49;;;;;;;3.87;2.20;;;12.60;99.90;;;;;;5070217;28;20690;-56
2022/06/06 05:38:38;;;;;;;4.75;2.90;;;12.50;99.90;;;;;;5087991;28;20179;-56
2022/06/06 05:41:12;;;;;;;3.77;2.80;;;12.50;99.90;;;;;;5090314;28;20651;-56
2022/06/06 05:43:40;;;;;;;4.10;3.17;;;12.30;99.90;;;;;;5090061;28;20229;-57
2022/06/06 05:46:14;;;;;;;3.53;2.97;;;12.60;99.90;;;;;;5090332;28;20179;-57
2022/06/06 05:48:48;;;;;;;4.13;2.90;;;12.70;99.90;;;;;;5087700;28;20176;-57
2022/06/06 05:51:22;;;;;;;4.00;3.23;;;12.60;99.90;;;;;;5073023;28;20229;-57
2022/06/06 05:54:15;;;;;;;5.18;3.55;;;12.60;99.90;;;;;;5072757;28;20164;-56
2022/06/06 05:57:13;;;;;;;4.83;3.73;;;12.60;99.90;;;;;;5078279;28;20623;-57
2022/06/06 06:00:04;;;;;;;5.72;3.88;;;12.60;99.90;;;;;;5058584;28;20261;-56
2022/06/06 06:02:41;;;;;;;3.97;3.58;;;12.70;99.90;;;;;;5091389;28;20744;-56
2022/06/06 06:05:20;;;;;;;5.10;4.40;;;12.70;99.90;;;;;;5093262;28;20630;-56
2022/06/06 06:08:07;;;;;;;7.32;4.03;;;12.80;99.90;;;;;;5093014;28;20214;-56
2022/06/06 06:10:51;;;;;;;6.82;4.25;;;12.90;99.90;;;;;;5092743;28;20183;-56
2022/06/06 06:13:19;;;;;;;8.10;4.60;;;13.00;99.90;;;;;;5092996;28;20263;-56
2022/06/06 06:15:45;;;;;;;7.43;4.50;;;13.10;99.90;;;;;;5093074;28;20213;-56
2022/06/06 06:18:21;;;;;;;5.43;4.53;;;13.30;99.90;;;;;;5093274;28;20164;-55
2022/06/06 06:20:52;;;;;;;6.72;4.30;;;13.10;99.90;;;;;;5075692;28;20264;-56
2022/06/06 06:23:24;;;;;;;7.07;4.82;;;13.30;99.90;;;;;;5072966;28;20670;-56
2022/06/06 06:25:51;;;;;;;6.57;4.75;;;13.10;99.90;;;;;;5076301;28;20516;-56
2022/06/06 06:28:17;;;;;;;6.95;4.78;;;13.10;99.90;;;;;;5088466;28;20172;-56
2022/06/06 06:30:48;;;;;;;6.18;5.18;;;13.10;99.90;;;;;;5071921;28;20172;-55
2022/06/06 06:33:51;;;;;;;6.15;5.13;;;13.20;99.90;;;;;;5083260;28;20175;-56
2022/06/06 06:36:38;;;;;;;6.28;5.30;;;13.20;99.90;;;;;;5093091;28;20186;-55
2022/06/06 06:39:16;;;;;;;9.38;6.13;;;13.10;99.90;;;;;;5083456;28;20263;-56
2022/06/06 06:42:16;;;;;;;8.30;6.45;;;13.00;99.90;;;;;;5072700;28;20184;-55
2022/06/06 06:45:08;;;;;;;10.40;6.80;;;13.10;99.90;;;;;;5077427;28;20645;-56
2022/06/06 06:47:35;;;;;;;8.25;6.75;;;13.10;99.90;;;;;;5092788;28;20176;-55
2022/06/06 06:50:09;;;;;;;10.63;6.97;;;13.20;99.90;;;;;;5085707;28;20196;-56
2022/06/06 06:53:24;;;;;;;12.10;7.53;;;13.20;99.90;;;;;;5072362;28;20211;-55
2022/06/06 06:56:14;;;;;;;12.55;8.07;;;13.20;99.90;;;;;;5008655;28;20266;-55
2022/06/06 06:58:53;;;;;;;11.10;7.70;;;13.30;99.90;;;;;;5072089;28;20173;-55
2022/06/06 07:08:32;;;;;;;11.98;8.13;;;13.40;99.90;;;;;;5071376;28;20219;-56
2022/06/06 07:10:55;;;;;;;10.40;8.35;;;13.40;99.90;;;;;;5092001;28;20221;-63
2022/06/06 07:13:46;;;;;;;11.30;8.27;;;13.40;99.90;;;;;;5089926;28;20172;-63
2022/06/06 07:16:20;;;;;;;13.00;8.73;;;13.70;99.90;;;;;;5091063;28;20218;-62
2022/06/06 07:18:50;;;;;;;10.23;7.38;;;13.60;99.90;;;;;;5092184;28;20176;-63
2022/06/06 07:21:17;;;;;;;9.63;6.95;;;13.60;99.90;;;;;;5087502;28;20249;-64
2022/06/06 07:23:46;;;;;;;8.90;6.63;;;13.60;99.90;;;;;;5089425;28;20654;-64
2022/06/06 07:26:13;;;;;;;8.55;6.82;;;13.70;99.90;;;;;;5084829;28;20177;-63
2022/06/06 07:28:38;;;;;;;10.73;7.75;;;13.80;99.90;;;;;;5078448;28;20260;-62
2022/06/06 07:31:22;;;;;;;31.58;8.55;;;13.70;99.90;;;;;;5079198;28;20303;-60
2022/06/06 07:34:08;;;;;;;13.57;8.07;;;14.20;99.90;;;;;;5071312;28;20168;-63
2022/06/06 07:37:05;;;;;;;11.57;8.15;;;13.90;99.90;;;;;;5072220;28;20183;-62
2022/06/06 07:39:54;;;;;;;13.32;7.28;;;13.90;99.90;;;;;;5051505;28;20197;-63
2022/06/06 07:43:02;;;;;;;15.98;7.40;;;13.90;99.90;;;;;;5051045;28;20559;-61
2022/06/06 07:45:39;;;;;;;13.05;6.53;;;13.90;99.90;;;;;;5040279;28;20185;-63
2022/06/06 07:48:13;;;;;;;10.32;6.57;;;14.10;99.90;;;;;;5051457;28;20199;-63
2022/06/06 07:50:48;;;;;;;10.88;6.72;;;14.10;99.90;;;;;;5072047;28;20180;-61
2022/06/06 07:53:22;;;;;;;9.93;7.20;;;14.40;99.90;;;;;;5073668;28;20584;-61
2022/06/06 07:55:51;;;;;;;11.13;6.57;;;14.40;99.90;;;;;;5071248;28;20203;-62
2022/06/06 07:58:40;;;;;;;14.95;6.43;;;14.70;99.90;;;;;;5071084;28;20231;-58
2022/06/06 08:01:15;;;;;;;9.50;6.25;;;14.70;99.90;;;;;;5071082;28;20214;-58
2022/06/06 08:03:44;;;;;;;11.20;6.47;;;14.90;99.90;;;;;;5075918;28;20255;-59
2022/06/06 08:06:14;;;;;;;16.70;6.43;;;15.20;99.90;;;;;;5071019;28;20716;-58
2022/06/06 08:08:58;;;;;;;11.90;6.07;;;15.20;99.90;;;;;;5071502;28;20176;-59
2022/06/06 08:11:26;;;;;;;8.52;5.95;;;15.20;99.90;;;;;;5082351;28;20278;-58
2022/06/06 08:14:20;;;;;;;9.60;6.03;;;14.90;99.90;;;;;;5089070;28;20172;-59
2022/06/06 08:17:08;;;;;;;10.73;6.05;;;14.90;99.90;;;;;;5086029;28;20211;-59
2022/06/06 08:20:08;;;;;;;6.63;5.28;;;15.20;99.90;;;;;;5089519;28;20705;-60
2022/06/06 08:22:36;;;;;;;8.45;6.03;;;15.70;99.90;;;;;;5091259;28;20198;-59
2022/06/06 08:25:06;;;;;;;10.27;5.68;;;16.10;99.90;;;;;;5090569;28;20179;-58
2022/06/06 08:27:33;;;;;;;11.77;5.95;;;16.50;99.90;;;;;;5084687;28;20304;-59
2022/06/06 08:29:59;;;;;;;8.43;5.70;;;16.60;99.90;;;;;;5071712;28;20314;-58
2022/06/06 08:32:27;;;;;;;10.13;6.38;;;16.60;99.90;;;;;;5069950;28;20228;-59
2022/06/06 08:34:54;;;;;;;11.48;6.57;;;16.60;99.90;;;;;;5070623;28;20223;-59
2022/06/06 08:37:28;;;;;;;11.18;6.03;;;16.80;99.90;;;;;;5070038;28;20269;-58
2022/06/06 08:39:57;;;;;;;10.20;5.75;;;16.80;99.90;;;;;;5070485;28;20273;-61
2022/06/06 08:42:22;;;;;;;10.13;5.80;;;16.60;99.90;;;;;;5070266;28;20260;-60
2022/06/06 08:45:16;;;;;;;13.15;5.95;;;16.70;99.90;;;;;;5069588;28;20207;-61
2022/06/06 08:47:57;;;;;;;11.80;5.60;;;16.90;99.90;;;;;;5047197;28;20192;-60
2022/06/06 08:50:46;;;;;;;11.15;5.95;;;17.20;99.90;;;;;;5069815;28;20172;-60
2022/06/06 08:53:56;;;;;;;13.70;6.75;;;16.60;99.90;;;;;;5070109;28;20168;-61
2022/06/06 08:56:40;;;;;;;10.10;6.30;;;16.60;99.90;;;;;;5036603;28;20340;-60
2022/06/06 08:59:43;;;;;;;11.63;6.15;;;16.60;99.90;;;;;;5070585;28;20168;-58
2022/06/06 09:02:46;;;;;;;11.10;6.25;;;16.50;99.90;;;;;;5070463;28;20685;-57
2022/06/06 09:05:33;;;;;;;12.10;6.20;;;16.40;99.90;;;;;;5070733;28;20172;-64
2022/06/06 09:08:26;;;;;;;9.90;6.90;;;16.50;99.90;;;;;;5078464;28;20271;-64
2022/06/06 09:11:12;;;;;;;13.55;6.28;;;16.50;99.90;;;;;;5077745;28;20194;-63
2022/06/06 09:14:33;;;;;;;9.80;6.80;;;16.50;99.90;;;;;;5086050;28;20246;-63
2022/06/06 09:17:38;;;;;;;13.10;8.07;;;16.40;99.90;;;;;;5022122;28;20173;-63
2022/06/06 09:20:13;;;;;;;10.38;6.65;;;16.20;99.90;;;;;;5080620;28;20199;-63
2022/06/06 09:22:44;;;;;;;13.25;6.78;;;16.00;99.90;;;;;;5090938;28;20175;-63
2022/06/06 09:25:10;;;;;;;13.93;7.63;;;15.80;99.90;;;;;;5087760;28;20267;-64
2022/06/06 09:27:54;;;;;;;11.50;7.80;;;15.60;99.90;;;;;;5073258;28;20616;-64
2022/06/06 09:30:45;;;;;;;14.63;7.35;;;15.60;99.90;;;;;;5072308;28;20165;-64
2022/06/06 09:33:29;;;;;;;13.18;7.45;;;16.10;99.90;;;;;;5071322;28;20677;-63
2022/06/06 09:36:04;;;;;;;13.95;7.55;;;16.30;99.90;;;;;;5076474;28;20217;-63
2022/06/06 09:38:51;;;;;;;11.00;6.70;;;15.90;99.90;;;;;;5071613;28;20210;-63
2022/06/06 09:41:58;;;;;;;16.30;7.57;;;15.80;99.90;;;;;;5072775;28;20219;-62
2022/06/06 09:44:59;;;;;;;12.45;6.75;;;15.80;99.90;;;;;;5069646;28;20192;-63
2022/06/06 09:47:39;;;;;;;15.20;7.28;;;15.60;99.90;;;;;;5072020;28;20218;-62
2022/06/06 09:50:45;;;;;;;10.02;7.40;;;15.50;99.90;;;;;;5070375;28;20643;-62
2022/06/06 09:53:35;;;;;;;10.80;6.70;;;16.00;99.90;;;;;;5064197;28;20737;-63
2022/06/06 09:59:22;;;;;;;11.85;7.03;;;16.40;99.90;;;;;;5080087;28;20199;-63
2022/06/06 10:01:53;;;;;;;12.93;7.15;;;16.30;99.90;;;;;;5086909;28;20188;-64
2022/06/06 10:04:22;;;;;;;10.82;6.55;;;17.90;99.90;;;;;;5091565;28;20172;-63
2022/06/06 10:07:21;;;;;;;11.05;5.57;;;16.80;99.90;;;;;;5093210;28;20171;-63
2022/06/06 10:09:52;;;;;;;11.98;5.68;;;17.00;99.90;;;;;;5079825;28;20219;-63
2022/06/06 10:12:36;;;;;;;11.38;5.80;;;17.00;99.90;;;;;;5073619;28;20176;-63
2022/06/06 10:15:46;;;;;;;7.82;5.63;;;17.20;99.90;;;;;;5073006;28;20241;-63
2022/06/06 10:18:31;;;;;;;8.23;5.80;;;17.60;99.90;;;;;;5073003;28;20623;-64
2022/06/06 10:21:15;;;;;;;11.07;5.70;;;17.90;99.90;;;;;;5072679;28;20216;-63
2022/06/06 10:23:44;;;;;;;6.75;4.93;;;17.80;99.90;;;;;;5073506;28;20259;-62
2022/06/06 10:26:30;;;;;;;10.93;5.82;;;17.80;99.90;;;;;;5074089;28;20177;-64
2022/06/06 10:29:15;;;;;;;8.10;5.03;;;17.60;99.90;;;;;;5072960;28;20161;-66
2022/06/06 10:32:05;;;;;;;17.88;5.88;;;17.30;99.90;;;;;;5072332;28;20242;-65
2022/06/06 10:34:43;;;;;;;12.65;6.25;;;17.10;99.90;;;;;;5074883;28;20184;-65
2022/06/06 10:37:28;;;;;;;10.02;6.18;;;16.90;99.90;;;;;;5072618;28;20164;-62
2022/06/06 10:40:22;;;;;;;19.30;7.20;;;16.70;99.90;;;;;;5071804;28;20208;-66
2022/06/06 10:43:28;;;;;;;11.55;6.57;;;16.80;99.90;;;;;;5072703;28;20165;-65
2022/06/06 10:46:13;;;;;;;8.05;6.15;;;16.90;99.90;;;;;;5069974;28;20268;-63
2022/06/06 10:49:08;;;;;;;8.15;5.63;;;17.10;99.90;;;;;;5071993;28;20176;-63
2022/06/06 10:52:12;;;;;;;12.77;5.45;;;17.20;99.90;;;;;;5072306;28;20192;-63
2022/06/06 10:55:08;;;;;;;11.82;5.45;;;17.20;99.90;;;;;;5072392;28;20263;-64
2022/06/06 10:57:37;;;;;;;11.13;5.90;;;17.40;99.90;;;;;;5090543;28;20228;-64
2022/06/06 11:00:29;;;;;;;14.82;6.10;;;17.60;99.90;;;;;;5092574;28;20232;-63
2022/06/06 11:03:19;;;;;;;11.30;6.10;;;17.50;99.90;;;;;;5064632;28;20184;-63
2022/06/06 11:06:00;;;;;;;7.57;5.75;;;17.60;99.90;;;;;;5091305;28;20172;-64
2022/06/06 11:08:35;;;;;;;9.60;5.28;;;18.10;99.90;;;;;;5089510;28;20182;-64
2022/06/06 11:11:35;;;;;;;10.50;5.20;;;18.10;99.90;;;;;;5082284;28;20623;-64
2022/06/06 11:14:25;;;;;;;10.07;5.15;;;19.20;99.90;;;;;;5078215;28;20655;-64
2022/06/06 11:17:27;;;;;;;7.50;4.55;;;20.60;99.90;;;;;;5092167;28;20179;-64
2022/06/06 11:20:02;;;;;;;7.13;4.15;;;20.90;99.90;;;;;;5083996;28;20629;-64
2022/06/06 11:22:40;;;;;;;6.15;3.67;;;20.20;99.90;;;;;;5071979;28;20195;-64
2022/06/06 11:25:16;;;;;;;8.07;4.10;;;20.20;99.90;;;;;;5072558;28;20168;-64
2022/06/06 11:28:04;;;;;;;5.78;4.40;;;19.90;99.90;;;;;;5092241;28;20168;-63
2022/06/06 11:31:03;;;;;;;5.00;3.97;;;19.20;99.90;;;;;;5062099;28;20214;-64
2022/06/06 11:33:57;;;;;;;7.70;3.65;;;19.10;99.90;;;;;;5063230;28;20184;-64
2022/06/06 11:36:26;;;;;;;7.88;3.65;;;19.20;99.90;;;;;;5070310;28;20573;-63
2022/06/06 11:39:13;;;;;;;7.55;4.15;;;19.70;99.90;;;;;;5072279;28;20286;-62
2022/06/06 11:42:26;;;;;;;9.32;3.90;;;19.80;99.90;;;;;;5071411;28;20184;-62
2022/06/06 11:45:22;;;;;;;7.78;4.60;;;19.90;99.90;;;;;;5009501;28;20166;-64
2022/06/06 11:48:26;;;;;;;9.32;4.15;;;20.00;99.90;;;;;;5070688;28;20180;-63
2022/06/06 11:50:57;;;;;;;6.10;4.20;;;20.40;99.90;;;;;;5071460;28;20622;-64
2022/06/06 11:53:59;;;;;;;6.05;3.90;;;20.70;99.90;;;;;;5071306;28;20206;-64
2022/06/06 11:56:50;;;;;;;8.43;3.58;;;21.10;99.90;;;;;;5071331;28;20650;-64
2022/06/06 11:59:31;;;;;;;7.82;3.85;;;20.60;99.90;;;;;;5071304;28;20230;-64
2022/06/06 12:02:32;;;;;;;8.90;3.95;;;20.00;99.90;;;;;;5071691;28;20187;-64
2022/06/06 12:05:13;;;;;;;11.48;3.70;;;19.90;99.90;;;;;;5071269;28;20191;-64
2022/06/06 12:07:50;;;;;;;11.82;3.63;;;19.30;99.90;;;;;;5070998;28;20199;-64
2022/06/06 12:10:26;;;;;;;4.78;3.42;;;19.50;99.90;;;;;;5071143;28;20179;-65
2022/06/06 12:13:04;;;;;;;6.43;3.63;;;19.60;99.90;;;;;;5071197;28;20156;-63
2022/06/06 12:15:38;;;;;;;6.78;3.80;;;19.40;99.90;;;;;;5071050;28;20553;-63
2022/06/06 12:18:35;;;;;;;5.00;3.55;;;19.50;99.90;;;;;;5071009;28;20168;-64
2022/06/06 12:21:21;;;;;;;5.10;3.65;;;19.60;99.90;;;;;;5070910;28;20227;-63
2022/06/06 12:24:17;;;;;;;10.30;4.20;;;19.70;99.90;;;;;;5070830;28;20287;-64
2022/06/06 12:27:14;;;;;;;8.73;3.72;;;19.70;99.90;;;;;;5071010;28;20326;-63
2022/06/06 12:29:42;;;;;;;5.63;3.58;;;20.40;99.90;;;;;;5070739;28;20176;-64
2022/06/06 12:32:11;;;;;;;8.43;3.25;;;21.10;99.90;;;;;;5070572;28;20219;-64
2022/06/06 12:34:39;;;;;;;6.40;2.85;;;21.30;99.90;;;;;;5070255;28;20248;-63
2022/06/06 12:37:18;;;;;;;4.95;2.90;;;21.40;99.90;;;;;;5069364;28;20271;-63
2022/06/06 12:40:15;;;;;;;4.30;2.72;;;21.10;99.90;;;;;;5070734;28;20257;-63
2022/06/06 12:43:07;;;;;;;6.68;3.10;;;20.70;99.90;;;;;;5070671;28;20161;-64
2022/06/06 12:45:43;;;;;;;6.05;2.67;;;21.30;99.90;;;;;;5071353;28;20207;-63
2022/06/06 12:48:20;;;;;;;4.85;2.40;;;22.10;99.90;;;;;;5070572;28;20238;-64
2022/06/06 12:50:49;;;;;;;3.55;1.90;;;22.70;99.90;;;;;;5085933;28;20171;-64
2022/06/06 12:53:43;;;;;;;5.72;2.20;;;23.10;99.90;;;;;;5071623;28;20563;-64
2022/06/06 12:56:17;;;;;;;4.78;2.30;;;23.30;99.90;;;;;;5078627;28;20555;-64
2022/06/06 12:58:56;;;;;;;5.68;2.10;;;22.60;99.90;;;;;;5093380;28;20198;-64
2022/06/06 13:01:41;;;;;;;4.88;2.08;;;22.10;99.90;;;;;;5092838;28;20681;-64
2022/06/06 13:04:16;;;;;;;2.92;2.40;;;21.10;99.90;;;;;;5094192;28;20174;-62
2022/06/06 13:07:12;;;;;;;8.40;2.13;;;21.50;99.90;;;;;;5094702;28;20175;-63
2022/06/06 13:10:11;;;;;;;5.72;2.03;;;21.90;99.90;;;;;;5085279;28;20200;-64
2022/06/06 13:12:55;;;;;;;4.80;1.65;;;21.20;99.90;;;;;;5034437;28;20192;-63
2022/06/06 13:15:48;;;;;;;3.83;1.67;;;20.70;99.90;;;;;;5083631;28;20173;-63
2022/06/06 13:18:41;;;;;;;6.25;2.05;;;20.20;99.90;;;;;;5074316;28;20271;-63
2022/06/06 13:21:34;;;;;;;3.95;1.60;;;20.00;99.90;;;;;;5054155;28;20208;-64
2022/06/06 13:24:33;;;;;;;5.95;1.80;;;19.90;99.90;;;;;;5060395;28;20260;-62
2022/06/06 13:27:19;;;;;;;5.70;1.80;;;20.00;99.90;;;;;;5073936;28;20635;-62
2022/06/06 13:29:48;;;;;;;6.68;1.80;;;20.70;99.90;;;;;;5074548;28;20180;-63
2022/06/06 13:32:40;;;;;;;10.52;2.22;;;21.20;99.90;;;;;;5073688;28;20220;-63
2022/06/06 13:35:22;;;;;;;4.78;1.65;;;21.60;99.90;;;;;;5082545;28;20544;-63
2022/06/06 13:38:12;;;;;;;4.88;1.52;;;21.70;99.90;;;;;;5076957;28;20207;-63
2022/06/06 13:40:48;;;;;;;4.15;1.40;;;21.50;99.90;;;;;;5086288;28;20214;-62
2022/06/06 13:43:47;;;;;;;5.15;1.40;;;21.10;99.90;;;;;;5083945;28;20668;-62
2022/06/06 13:46:26;;;;;;;4.93;1.30;;;21.00;99.90;;;;;;5032091;28;20247;-62
2022/06/06 13:49:09;;;;;;;4.90;1.33;;;20.90;99.90;;;;;;5059051;28;20190;-59
2022/06/06 13:52:13;;;;;;;4.70;1.23;;;21.80;99.90;;;;;;5073198;28;20537;-62
2022/06/06 13:54:40;;;;;;;4.63;1.20;;;21.90;99.90;;;;;;5053462;28;20168;-61
2022/06/06 13:57:14;;;;;;;4.93;1.20;;;21.90;99.90;;;;;;5069184;28;20164;-61
2022/06/06 14:00:01;;;;;;;1.67;1.00;;;21.50;99.90;;;;;;5073318;28;20274;-61
2022/06/06 14:02:39;;;;;;;2.10;1.08;;;21.10;99.90;;;;;;5073209;28;20241;-61
2022/06/06 14:05:20;;;;;;;4.10;1.20;;;21.30;99.90;;;;;;5073441;28;20168;-61
2022/06/06 14:08:20;;;;;;;4.20;1.27;;;21.10;99.90;;;;;;5073494;28;20560;-61